Tiempo atmosférico en la estación meteorológica de Balsareny, Barcelona (352 m.)



Fecha
DESCASC
Temp. máxima en grados centígrados (hora)
DESCASC
Temp. mínima en grados centígrados (hora)
DESCASC
Temp. media en grados centígrados
DESCASC
Racha de viento máxima en m/sg (hora)
DESCASC
Velocidad máxima media en intervalos de 10 minutos(hora)
DESCASC
Precipitaciones diarias en mm
DESCASC
Precipitaciones de 00:00 a 06:00 en mm
DESCASC
Precipitaciones de 06:00 a 12:00 en mm
DESCASC
Precipitaciones de 12:00 a 18:00 en mm
DESCASC
Precipitaciones de 18:00 a 24:00 en mm
DESCASC
02-07-2020 30.9 (15:30) 15.6 (22:20) 23.3 25 (22:10) 10.83 (22:10) 21.2 0 0 0 21.2
01-07-2020 33.5 (17:30) 18.7 (06:50) 26.1 8.33 (20:30) 6.11 (19:40) 0.2 0.2 0 0 0
30-06-2020 30 (16:50) 20.7 (00:00) 25.4 8.33 (17:30) 5.28 (17:30) 0 0 0 0 0
29-06-2020 31 (15:50) 15.8 (00:00) 23.4 9.72 (18:50) 6.67 (19:20) 0 0 0 0 0
28-06-2020 31.5 (15:10) 17.9 (00:00) 24.7 9.72 (16:50) 6.11 (17:00) 0 0 0 0 0
27-06-2020 31.1 (15:30) 15.9 (00:00) 23.5 8.89 (18:40) 6.11 (17:50) 0 0 0 0 0
26-06-2020 31 (15:30) 15.4 (00:00) 23.2 8.61 (18:30) 5.83 (18:40) 0 0 0 0 0
25-06-2020 31.3 (15:00) 16.4 (00:00) 23.8 10.28 (17:50) 6.39 (17:50) 0 0 0 0 0
24-06-2020 30 (16:00) 14.1 (00:00) 22.1 8.61 (16:40) 5.83 (16:40) 0 0 0 0 0
23-06-2020 30 (16:10) 16.2 (00:00) 23.1 8.61 (16:40) 5.83 (17:00) 0 0 0 0 0
22-06-2020 30.1 (15:10) 16.6 (00:00) 23.4 9.17 (18:00) 6.39 (18:00) 0 0 0 0 0
21-06-2020 31.3 (17:20) 14.5 (00:00) 22.9 8.33 (15:50) 5 (16:20) 0 0 0 0 0
20-06-2020 27.6 (15:20) 12.7 (00:00) 20.2 11.11 (16:50) 7.22 (16:40) 0 0 0 0 0
19-06-2020 24.5 (17:20) 15.8 (00:00) 20.2 9.72 (18:30) 6.11 (19:00) 0 0 0 0 0
18-06-2020 24.2 (16:00) 12.4 (00:00) 18.3 9.17 (18:20) 6.11 (19:20) 7.2 0 7.2 0 0
17-06-2020 24.4 (17:30) 11.7 (00:00) 18 9.72 (19:00) 6.11 (20:20) 0 0 0 0 0
16-06-2020 21.2 (19:30) 14.1 (00:00) 17.7 4.44 (16:40) 3.33 (17:50) 14.2 0.2 10 4 0
15-06-2020 26.8 (18:50) 13.2 (00:00) 20 10.56 (16:00) 6.94 (16:00) 0 0 0 0 0
14-06-2020 25.7 (13:50) 10.2 (00:00) 18 9.44 (16:40) 6.11 (16:40) 0 0 0 0 0
13-06-2020 25.1 (17:30) 9.1 (00:00) 17.1 11.39 (14:00) 6.39 (18:40) 0 0 0 0 0
12-06-2020 23.7 (18:50) 14 (00:00) 18.9 10 (15:00) 5 (17:50) 3.4 3.4 0 0 0
11-06-2020 21.1 (14:00) 13.5 (00:00) 17.3 5.83 (16:10) 3.89 (15:10) 1.4 0 0 1.4 0
10-06-2020 23.9 (16:50) 8.4 (00:00) 16.1 8.33 (18:20) 4.72 (18:00) 0 0 0 0 0
09-06-2020 21.4 (13:50) 8.2 (00:00) 14.8 13.33 (15:10) 7.5 (15:10) 2 0 0 2 0
08-06-2020 19.6 (15:10) 11.2 (07:00) 15.4 9.17 (16:20) 6.39 (16:40) 0 0 0 0 0
07-06-2020 22.3 (15:50) 12.8 (00:00) 17.5 17.78 (17:50) 9.72 (17:50) 29.4 0.4 0 6.8 22.2
06-06-2020 27.1 (15:40) 10.3 (00:00) 18.7 10.28 (19:10) 7.22 (19:10) 0 0 0 0 0
05-06-2020 25.4 (17:00) 9.3 (00:00) 17.3 8.33 (19:00) 4.72 (19:10) 0 0 0 0 0
04-06-2020 20.4 (17:40) 11.7 (00:00) 16 10.83 (17:40) 6.39 (17:50) 3.8 0.2 3.6 0 0

Gráficas

Temp. máximas Temp. mínimas Temp. medias Precipitaciones Rachas de viento máximas Velocidades máximas media en intervalos de 10 minutos

Datos horarios

Fecha y hora oficial Temperatura (ºC) Velocidad del viento (km/h) Dirección del viento Racha (km/h) Dirección de racha Precipitación (mm) Presión (hPa) Tendencia (hPa) Humedad (%)
2020-07-03 23:00:00 20.3 6 Sur 17 Sur 0 -- -- 81
2020-07-03 22:00:00 21.2 15 Sur 28 Sur 0 -- -- 75
2020-07-03 21:00:00 22.6 19 Sur 32 Sur 0 -- -- 70
2020-07-03 20:00:00 25.1 21 Sur 32 Sur 0 -- -- 60
2020-07-03 19:00:00 26.9 10 Sudoeste 34 Sudoeste 0 -- -- 40
2020-07-03 18:00:00 27.1 13 Sudoeste 35 Sudoeste 0 -- -- 43
2020-07-03 17:00:00 27 14 Sudoeste 28 Sudoeste 0 -- -- 46
2020-07-03 16:00:00 26.1 10 Oeste 31 Sudoeste 0 -- -- 50
2020-07-03 15:00:00 24.9 13 Sudoeste 29 Sudoeste 0 -- -- 55
2020-07-03 14:00:00 23.5 12 Sudoeste 26 Sudoeste 0 -- -- 62
2020-07-03 13:00:00 21.7 7 Sudoeste 19 Noroeste 0 -- -- 69
2020-07-03 12:00:00 20.6 8 Sudoeste 22 Sudoeste 0 -- -- 73
2020-07-03 11:00:00 19.4 8 Sudoeste 18 Sudoeste 0 -- -- 81
2020-07-03 10:00:00 17.5 5 Sudoeste 14 Sudoeste 0 -- -- 87
2020-07-03 09:00:00 15.9 7 Sur 10 Sur 0.8 -- -- 97
2020-07-03 08:00:00 15.8 4 Sur 16 Sudoeste 0 -- -- 96
2020-07-03 07:00:00 15.9 4 Oeste 23 Oeste 0.8 -- -- 98
2020-07-03 06:00:00 16.6 5 Sur 15 Oeste 0.2 -- -- 99
2020-07-03 05:00:00 16.9 4 Norte 11 Noroeste 0.2 -- -- 100
2020-07-03 04:00:00 17.6 4 Norte 11 Norte 0 -- -- 100
2020-07-03 03:00:00 17.6 6 Este 19 Noroeste 0.2 -- -- 100
2020-07-03 02:00:00 17.7 7 Sur 15 Sudoeste 5.4 -- -- 100
2020-07-03 01:00:00 17.5 11 Norte 25 Norte 12.8 -- -- 99
2020-07-03 00:00:00 16.9 10 Oeste 19 Oeste 0.2 -- -- 99
2020-07-02 23:00:00 16 12 Noroeste 90 Noroeste 21 -- -- 98
2020-07-02 22:00:00 21.2 14 Nordeste 24 Norte 0 -- -- 81
2020-07-02 21:00:00 22.7 6 Sur 38 Sur 0 -- -- 77
2020-07-02 20:00:00 25.7 28 Sur 42 Sur 0 -- -- 67
2020-07-02 19:00:00 27.6 21 Sur 36 Sur 0 -- -- 65
2020-07-02 18:00:00 29.7 15 Sur 25 Sudeste 0 -- -- 55
2020-07-02 17:00:00 29.7 17 Sur 29 Sudoeste 0 -- -- 55
2020-07-02 16:00:00 30.6 14 Sur 28 Sur 0 -- -- 52
2020-07-02 15:00:00 30 8 Sudoeste 21 Sudoeste 0 -- -- 51
2020-07-02 14:00:00 28.1 9 Sudoeste 24 Sudoeste 0 -- -- 60
2020-07-02 13:00:00 27.4 10 Norte 23 Sur 0 -- -- 57
2020-07-02 12:00:00 29.2 10 Sur 22 Sur 0 -- -- 53
2020-07-02 11:00:00 27.8 6 Sudeste 12 Sudeste 0 -- -- 60
2020-07-02 10:00:00 26 5 Este 9 Nordeste 0 -- -- 64
2020-07-02 09:00:00 23.9 5 Sudeste 9 Este 0 -- -- 76
2020-07-02 08:00:00 21.6 2 Nordeste 8 Sur 0 -- -- 85
2020-07-02 07:00:00 19.6 5 Sudeste 12 Noroeste 0 -- -- 91
2020-07-02 06:00:00 20 4 Sudoeste 9 Noroeste 0 -- -- 90
2020-07-02 05:00:00 20.7 4 Noroeste 10 Noroeste 0 -- -- 88
2020-07-02 04:00:00 20.7 8 Noroeste 12 Noroeste 0 -- -- 88
2020-07-02 03:00:00 21.1 4 Sudoeste 11 Noroeste 0 -- -- 84
2020-07-02 02:00:00 20.8 4 Sudeste 12 Noroeste 0 -- -- 84
2020-07-02 01:00:00 21 5 Noroeste 6 Norte 0 -- -- 83
2020-07-02 00:00:00 22.7 3 Noroeste 8 Sur 0 -- -- 76
2020-07-01 23:00:00 24.9 3 Sudeste 12 Este 0 -- -- 66
2020-07-01 22:00:00 26.4 4 Sur 20 Sur 0 -- -- 59
2020-07-01 21:00:00 27.9 14 Sudoeste 30 Sur 0 -- -- 52
2020-07-01 20:00:00 30.2 19 Sur 29 Sur 0 -- -- 46
2020-07-01 19:00:00 32.4 17 Sur 27 Sudoeste 0 -- -- 40
2020-07-01 18:00:00 33.4 14 Sur 23 Sur 0 -- -- 40
2020-07-01 17:00:00 33.4 11 Sudeste 23 Sur 0 -- -- 38
2020-07-01 16:00:00 33 12 Sudeste 26 Sudoeste 0 -- -- 37
2020-07-01 15:00:00 32.8 13 Sur 25 Sur 0 -- -- 35
2020-07-01 14:00:00 32 12 Sur 23 Sur 0 -- -- 38
2020-07-01 13:00:00 30.9 12 Sur 20 Sur 0 -- -- 40
2020-07-01 12:00:00 29.4 10 Sudeste 16 Sudeste 0 -- -- 43
2020-07-01 11:00:00 27 6 Sudeste 11 Sudeste 0 -- -- 56
2020-07-01 10:00:00 24.4 3 Norte 7 Nordeste 0 -- -- 73
2020-07-01 09:00:00 22.1 4 Norte 7 Nordeste 0 -- -- 84
2020-07-01 08:00:00 20 3 Norte 5 Norte 0 -- -- 90
2020-07-01 07:00:00 18.8 0 Calma 8 Noroeste 0 -- -- 95
2020-07-01 06:00:00 19.6 4 Noroeste 8 Noroeste 0 -- -- 95
2020-07-01 05:00:00 19.6 6 Nordeste 20 Noroeste 0 -- -- 94
2020-07-01 04:00:00 20.2 8 Noroeste 15 Norte 0 -- -- 93
2020-07-01 03:00:00 20.7 9 Norte 18 Sur 0.2 -- -- 92
2020-07-01 02:00:00 21.1 3 Sur 7 Sur 0 -- -- 87
2020-07-01 01:00:00 21.2 0 Calma 13 Noroeste 0 -- -- 85
2020-07-01 00:00:00 21.7 7 Noroeste 14 Noroeste 0 -- -- 83
2020-06-30 23:00:00 23.3 6 Sudoeste 13 Sudeste 0 -- -- 77
2020-06-30 22:00:00 24.5 8 Sur 19 Sur 0 -- -- 71
2020-06-30 21:00:00 25.9 12 Sudoeste 22 Sur 0 -- -- 65
2020-06-30 20:00:00 28.1 15 Sur 27 Sudoeste 0 -- -- 58
2020-06-30 19:00:00 28.8 16 Sur 28 Sur 0 -- -- 59
2020-06-30 18:00:00 29.3 16 Sur 30 Sur 0 -- -- 60
2020-06-30 17:00:00 29.8 15 Sur 28 Sur 0 -- -- 60
2020-06-30 16:00:00 28.9 19 Sur 28 Sur 0 -- -- 61
2020-06-30 15:00:00 28.7 14 Sudeste 26 Sudeste 0 -- -- 61
2020-06-30 14:00:00 27.3 10 Sur 20 Sudeste 0 -- -- 66
2020-06-30 13:00:00 26.1 9 Sur 15 Sudeste 0 -- -- 69
2020-06-30 12:00:00 24.1 6 Sur 14 Sur 0 -- -- 77
2020-06-30 11:00:00 23.2 9 Sur 14 Sur 0 -- -- 79
2020-06-30 10:00:00 22.5 9 Sur 13 Sur 0 -- -- 83
2020-06-30 09:00:00 21.7 7 Sur 13 Sudoeste 0 -- -- 87
2020-06-30 08:00:00 20.9 5 Sudeste 10 Sur 0 -- -- 89
2020-06-30 07:00:00 20.7 7 Sur 10 Sur 0 -- -- 91
2020-06-30 06:00:00 21 5 Sur 10 Sur 0 -- -- 89
2020-06-30 05:00:00 21.3 6 Sur 13 Sur 0 -- -- 88
2020-06-30 04:00:00 21.5 5 Sur 12 Sur 0 -- -- 87
2020-06-30 03:00:00 21.6 9 Sur 15 Sur 0 -- -- 87
2020-06-30 02:00:00 21.6 8 Sur 14 Sudoeste 0 -- -- 87
2020-06-30 01:00:00 22.1 8 Sur 18 Sur 0 -- -- 83
2020-06-30 00:00:00 22.7 12 Sur 23 Sudoeste 0 -- -- 82
2020-06-29 23:00:00 23.3 13 Sur 22 Sudoeste 0 -- -- 79
2020-06-29 22:00:00 23.8 11 Sur 20 Sur 0 -- -- 79
2020-06-29 21:00:00 24.4 12 Sur 28 Sur 0 -- -- 77
2020-06-29 20:00:00 25.2 18 Sur 35 Sur 0 -- -- 73
2020-06-29 19:00:00 26.8 21 Sur 35 Sur 0 -- -- 68
2020-06-29 18:00:00 28 22 Sur 35 Sur 0 -- -- 64
2020-06-29 17:00:00 28.7 21 Sur 35 Sur 0 -- -- 63
2020-06-29 16:00:00 30.8 19 Sur 33 Sudeste 0 -- -- 54
2020-06-29 15:00:00 30.5 15 Sur 29 Sur 0 -- -- 49
2020-06-29 14:00:00 29.9 10 Sur 21 Sur 0 -- -- 50
2020-06-29 13:00:00 28.9 14 Sur 23 Sudeste 0 -- -- 52
2020-06-29 12:00:00 27.7 11 Sur 22 Sur 0 -- -- 56
2020-06-29 11:00:00 26.1 9 Sudeste 14 Sudeste 0 -- -- 62
2020-06-29 10:00:00 24.2 4 Sur 8 Sur 0 -- -- 71
2020-06-29 09:00:00 21.5 3 Sur 5 Sudeste 0 -- -- 78
2020-06-29 08:00:00 18.7 3 Norte 6 Norte 0 -- -- 90
2020-06-29 07:00:00 16 2 Noroeste 5 Norte 0 -- -- 95
2020-06-29 06:00:00 16.1 2 Norte 9 Noroeste 0 -- -- 93
2020-06-29 05:00:00 16.5 6 Norte 8 Norte 0 -- -- 94
2020-06-29 04:00:00 16.9 3 Noroeste 6 Noroeste 0 -- -- 92
2020-06-29 03:00:00 17.5 5 Noroeste 7 Noroeste 0 -- -- 88
2020-06-29 02:00:00 18.8 0 Calma 6 Norte 0 -- -- 83
2020-06-29 01:00:00 19.5 3 Oeste 7 Norte 0 -- -- 80
2020-06-29 00:00:00 21.1 4 Noroeste 10 Noroeste 0 -- -- 73
2020-06-28 23:00:00 22.7 0 Calma 5 Noroeste 0 -- -- 66
2020-06-28 22:00:00 24.9 2 Nordeste 21 Sur 0 -- -- 59
2020-06-28 21:00:00 26.2 16 Sur 27 Sur 0 -- -- 57
2020-06-28 20:00:00 27.7 18 Sur 31 Sur 0 -- -- 54
2020-06-28 19:00:00 29 21 Sur 32 Sur 0 -- -- 52
2020-06-28 18:00:00 29.2 20 Sur 31 Sur 0 -- -- 52
2020-06-28 17:00:00 30.7 22 Sur 35 Sur 0 -- -- 51
2020-06-28 16:00:00 31.4 20 Sur 28 Sudoeste 0 -- -- 46
2020-06-28 15:00:00 31.4 12 Sur 24 Sur 0 -- -- 46
2020-06-28 14:00:00 30.4 11 Sur 25 Sur 0 -- -- 45
2020-06-28 13:00:00 29.2 10 Sur 20 Sur 0 -- -- 52
2020-06-28 12:00:00 27.6 6 Sudeste 12 Sudeste 0 -- -- 56
2020-06-28 11:00:00 24.7 5 Sudeste 9 Sudeste 0 -- -- 69
2020-06-28 10:00:00 21.6 5 Este 9 Nordeste 0 -- -- 87
2020-06-28 09:00:00 19.8 4 Noroeste 8 Noroeste 0 -- -- 93
2020-06-28 08:00:00 19.5 5 Noroeste 8 Norte 0 -- -- 94
2020-06-28 07:00:00 19.4 4 Norte 6 Norte 0 -- -- 93
2020-06-28 06:00:00 18.9 4 Norte 7 Noroeste 0 -- -- 93
2020-06-28 05:00:00 18.8 5 Noroeste 8 Noroeste 0 -- -- 93
2020-06-28 04:00:00 18.1 6 Noroeste 8 Norte 0 -- -- 95
2020-06-28 03:00:00 18.4 0 Calma 4 Sudoeste 0 -- -- 92
2020-06-28 02:00:00 19.5 0 Calma 6 Noroeste 0 -- -- 89
2020-06-28 01:00:00 20 6 Noroeste 8 Noroeste 0 -- -- 88
2020-06-28 00:00:00 21.3 4 Norte 6 Norte 0 -- -- 83
2020-06-27 23:00:00 23.2 5 Sudoeste 10 Sur 0 -- -- 76
2020-06-27 22:00:00 24.3 6 Sur 18 Sur 0 -- -- 72
2020-06-27 21:00:00 25.6 13 Sur 21 Sur 0 -- -- 67
2020-06-27 20:00:00 26.9 19 Sur 31 Sur 0 -- -- 63
2020-06-27 19:00:00 28.2 21 Sur 32 Sudoeste 0 -- -- 58
2020-06-27 18:00:00 29.4 20 Sur 31 Sur 0 -- -- 54
2020-06-27 17:00:00 30.7 14 Sur 25 Sur 0 -- -- 46
2020-06-27 16:00:00 30.9 10 Sudeste 24 Sur 0 -- -- 39
2020-06-27 15:00:00 30.5 10 Sur 25 Sudoeste 0 -- -- 34
2020-06-27 14:00:00 30 7 Sur 22 Sur 0 -- -- 35
2020-06-27 13:00:00 28.9 8 Sudoeste 21 Sudoeste 0 -- -- 39
2020-06-27 12:00:00 27.9 7 Sur 14 Sudeste 0 -- -- 40
2020-06-27 11:00:00 26.4 5 Este 12 Sur 0 -- -- 48
2020-06-27 10:00:00 23.5 4 Sur 7 Sudoeste 0 -- -- 58
2020-06-27 09:00:00 21.2 3 Nordeste 6 Nordeste 0 -- -- 68
2020-06-27 08:00:00 18.2 3 Norte 4 Norte 0 -- -- 80
2020-06-27 07:00:00 16 2 Noroeste 5 Norte 0 -- -- 89
2020-06-27 06:00:00 16.7 6 Noroeste 11 Noroeste 0 -- -- 85
2020-06-27 05:00:00 16.9 3 Norte 8 Noroeste 0 -- -- 85
2020-06-27 04:00:00 17.4 4 Noroeste 10 Noroeste 0 -- -- 81
2020-06-27 03:00:00 17.2 5 Norte 10 Norte 0 -- -- 82
2020-06-27 02:00:00 17.6 0 Calma 11 Noroeste 0 -- -- 80
2020-06-27 01:00:00 17.6 4 Norte 9 Norte 0 -- -- 78
2020-06-27 00:00:00 19.4 7 Noroeste 12 Noroeste 0 -- -- 71
2020-06-26 23:00:00 21.2 8 Noroeste 13 Norte 0 -- -- 62
2020-06-26 22:00:00 23.7 2 Sur 16 Sudoeste 0 -- -- 53
2020-06-26 21:00:00 25.3 11 Sudoeste 20 Sur 0 -- -- 46
2020-06-26 20:00:00 26.9 14 Sur 28 Sur 0 -- -- 41
2020-06-26 19:00:00 28.7 19 Sur 31 Sudoeste 0 -- -- 37
2020-06-26 18:00:00 29.7 19 Sur 30 Sur 0 -- -- 35
2020-06-26 17:00:00 30.3 18 Sur 29 Sur 0 -- -- 37
2020-06-26 16:00:00 30.9 17 Sur 30 Sur 0 -- -- 37
2020-06-26 15:00:00 30.9 17 Sur 31 Sur 0 -- -- 36
2020-06-26 14:00:00 30.3 14 Sur 25 Sur 0 -- -- 37
2020-06-26 13:00:00 29.6 10 Sur 20 Sudeste 0 -- -- 40
2020-06-26 12:00:00 28.3 7 Sudeste 13 Sudeste 0 -- -- 44
2020-06-26 11:00:00 26.1 5 Sur 12 Sur 0 -- -- 51
2020-06-26 10:00:00 23.5 4 Norte 10 Norte 0 -- -- 63
2020-06-26 09:00:00 21 3 Sudeste 8 Norte 0 -- -- 72
2020-06-26 08:00:00 17.7 2 Norte 5 Norte 0 -- -- 87
2020-06-26 07:00:00 15.8 0 Calma 9 Noroeste 0 -- -- 94
2020-06-26 06:00:00 16 7 Noroeste 8 Noroeste 0 -- -- 93
2020-06-26 05:00:00 16.8 0 Calma 10 Noroeste 0 -- -- 90
2020-06-26 04:00:00 17.7 7 Norte 9 Norte 0 -- -- 87
2020-06-26 03:00:00 18.1 6 Noroeste 9 Noroeste 0 -- -- 86
2020-06-26 02:00:00 18.7 6 Norte 10 Noroeste 0 -- -- 84
2020-06-26 01:00:00 18.9 4 Norte 9 Norte 0 -- -- 83
2020-06-26 00:00:00 19.6 3 Noroeste 9 Norte 0 -- -- 79
2020-06-25 23:00:00 20 7 Norte 15 Noroeste 0 -- -- 76
2020-06-25 22:00:00 21.3 3 Norte 9 Norte 0 -- -- 70
2020-06-25 21:00:00 22.7 3 Este 16 Norte 0 -- -- 65
2020-06-25 20:00:00 24.2 9 Noroeste 14 Norte 0 -- -- 59
2020-06-25 19:00:00 23.5 9 Noroeste 21 Norte 0 -- -- 57
2020-06-25 18:00:00 27.6 15 Norte 37 Norte 0 -- -- 46
2020-06-25 17:00:00 31 15 Sur 27 Sur 0 -- -- 51
2020-06-25 16:00:00 31.2 18 Sur 31 Sur 0 -- -- 46
2020-06-25 15:00:00 31.3 14 Sur 25 Sur 0 -- -- 44
2020-06-25 14:00:00 30.2 13 Sur 24 Sudeste 0 -- -- 45
2020-06-25 13:00:00 29.2 9 Sudeste 18 Sur 0 -- -- 51
2020-06-25 12:00:00 27.9 8 Sudeste 15 Sudeste 0 -- -- 55
2020-06-25 11:00:00 26 8 Sur 12 Sur 0 -- -- 58
2020-06-25 10:00:00 23.8 3 Sur 9 Noroeste 0 -- -- 64
2020-06-25 09:00:00 21.3 5 Norte 8 Nordeste 0 -- -- 73
2020-06-25 08:00:00 18.3 4 Norte 7 Noroeste 0 -- -- 86
2020-06-25 07:00:00 16.7 5 Noroeste 9 Noroeste 0 -- -- 92
2020-06-25 06:00:00 16.9 3 Noroeste 9 Noroeste 0 -- -- 90
2020-06-25 05:00:00 17.7 6 Noroeste 9 Noroeste 0 -- -- 90
2020-06-25 04:00:00 18.7 0 Calma 9 Noroeste 0 -- -- 86
2020-06-25 03:00:00 18.7 6 Noroeste 10 Noroeste 0 -- -- 85
2020-06-25 02:00:00 18.8 3 Noroeste 7 Norte 0 -- -- 83
2020-06-25 01:00:00 19.7 0 Calma 9 Noroeste 0 -- -- 80
2020-06-25 00:00:00 20.3 3 Este 15 Noroeste 0 -- -- 79
2020-06-24 23:00:00 21.7 4 Noroeste 8 Noroeste 0 -- -- 70
2020-06-24 22:00:00 23.7 4 Sur 8 Sudeste 0 -- -- 64
2020-06-24 21:00:00 25.2 3 Sudoeste 16 Sudoeste 0 -- -- 57
2020-06-24 20:00:00 26.4 10 Sur 19 Sur 0 -- -- 53
2020-06-24 19:00:00 28 12 Sur 26 Sudeste 0 -- -- 47
2020-06-24 18:00:00 29 19 Sur 29 Sur 0 -- -- 44
2020-06-24 17:00:00 29.4 19 Sur 31 Sur 0 -- -- 45
2020-06-24 16:00:00 30 15 Sur 28 Sur 0 -- -- 47
2020-06-24 15:00:00 29.8 17 Sur 27 Sur 0 -- -- 47
2020-06-24 14:00:00 29.1 17 Sur 29 Sur 0 -- -- 47
2020-06-24 13:00:00 27.9 10 Sur 20 Sur 0 -- -- 53
2020-06-24 12:00:00 26.7 8 Sudeste 19 Sudeste 0 -- -- 56
2020-06-24 11:00:00 24.6 10 Sur 17 Sudeste 0 -- -- 60
2020-06-24 10:00:00 22.2 6 Sur 11 Sudeste 0 -- -- 67
2020-06-24 09:00:00 19.9 2 Este 5 Nordeste 0 -- -- 77
2020-06-24 08:00:00 16.9 2 Nordeste 5 Nordeste 0 -- -- 87
2020-06-24 07:00:00 15 0 Calma 6 Noroeste 0 -- -- 94
2020-06-24 06:00:00 14.4 4 Noroeste 6 Noroeste 0 -- -- 94
2020-06-24 05:00:00 14.7 2 Norte 8 Noroeste 0 -- -- 92
2020-06-24 04:00:00 15.1 4 Noroeste 5 Norte 0 -- -- 91
2020-06-24 03:00:00 16.1 3 Norte 5 Noroeste 0 -- -- 88
2020-06-24 02:00:00 17.4 5 Noroeste 8 Noroeste 0 -- -- 83
2020-06-24 01:00:00 18.5 6 Noroeste 8 Norte 0 -- -- 78
2020-06-24 00:00:00 19.3 6 Norte 8 Norte 0 -- -- 76
2020-06-23 23:00:00 21.5 4 Noroeste 10 Sudoeste 0 -- -- 65
2020-06-23 22:00:00 23.1 8 Sur 17 Sur 0 -- -- 59
2020-06-23 21:00:00 24.5 12 Sur 25 Sur 0 -- -- 57
2020-06-23 20:00:00 26.3 18 Sur 27 Sur 0 -- -- 52
2020-06-23 19:00:00 27.8 19 Sur 28 Sur 0 -- -- 50
2020-06-23 18:00:00 28.6 21 Sur 30 Sur 0 -- -- 51
2020-06-23 17:00:00 29.3 21 Sur 31 Sudoeste 0 -- -- 51
2020-06-23 16:00:00 29.7 18 Sur 30 Sudoeste 0 -- -- 52
2020-06-23 15:00:00 29.7 14 Sur 27 Sur 0 -- -- 51
2020-06-23 14:00:00 29.2 14 Sur 24 Sur 0 -- -- 53
2020-06-23 13:00:00 28.1 13 Sur 21 Sur 0 -- -- 54
2020-06-23 12:00:00 27.1 10 Sur 19 Sur 0 -- -- 51
2020-06-23 11:00:00 25.7 8 Sudeste 14 Sur 0 -- -- 55
2020-06-23 10:00:00 23.9 3 Este 8 Sudeste 0 -- -- 67
2020-06-23 09:00:00 21.3 3 Nordeste 6 Este 0 -- -- 83
2020-06-23 08:00:00 18.8 3 Nordeste 5 Este 0 -- -- 89
2020-06-23 07:00:00 16.3 3 Noroeste 4 Norte 0 -- -- 96
2020-06-23 06:00:00 16.8 0 Calma 4 Norte 0 -- -- 95
2020-06-23 05:00:00 17.4 0 Calma 6 Norte 0 -- -- 94
2020-06-23 04:00:00 17.9 0 Calma 6 Noroeste 0 -- -- 92
2020-06-23 03:00:00 18.5 5 Noroeste 7 Noroeste 0 -- -- 90
2020-06-23 02:00:00 19 3 Norte 7 Noroeste 0 -- -- 89
2020-06-23 01:00:00 19.5 5 Noroeste 9 Noroeste 0 -- -- 86
2020-06-23 00:00:00 20.3 0 Calma 6 Sur 0 -- -- 82
2020-06-22 23:00:00 21.1 6 Sudoeste 13 Sur 0 -- -- 79
2020-06-22 22:00:00 22.3 9 Sur 18 Sur 0 -- -- 77
2020-06-22 21:00:00 23.7 13 Sur 24 Sur 0 -- -- 70
2020-06-22 20:00:00 25.6 16 Sur 28 Sur 0 -- -- 64
2020-06-22 19:00:00 26.6 20 Sur 30 Sur 0 -- -- 63
2020-06-22 18:00:00 28.2 23 Sur 33 Sur 0 -- -- 58
2020-06-22 17:00:00 29.1 17 Sur 28 Sudoeste 0 -- -- 54
2020-06-22 16:00:00 29.6 11 Sur 22 Sur 0 -- -- 51
2020-06-22 15:00:00 29.7 10 Sudeste 32 Sur 0 -- -- 50
2020-06-22 14:00:00 28.9 10 Sur 20 Sur 0 -- -- 51
2020-06-22 13:00:00 27.8 11 Sur 21 Sur 0 -- -- 50
2020-06-22 12:00:00 26.6 9 Sur 16 Sur 0 -- -- 59
2020-06-22 11:00:00 24.9 7 Sudoeste 14 Sudeste 0 -- -- 65
2020-06-22 10:00:00 23.2 6 Sudeste 10 Sudeste 0 -- -- 71
2020-06-22 09:00:00 21.2 6 Este 9 Nordeste 0 -- -- 77
2020-06-22 08:00:00 18.1 3 Norte 5 Norte 0 -- -- 91
2020-06-22 07:00:00 16.6 0 Calma 6 Norte 0 -- -- 96
2020-06-22 06:00:00 17 2 Norte 5 Norte 0 -- -- 96
2020-06-22 05:00:00 17.8 2 Nordeste 10 Norte 0 -- -- 93
2020-06-22 04:00:00 18.3 2 Noroeste 7 Noroeste 0 -- -- 92
2020-06-22 03:00:00 19.1 0 Calma 9 Norte 0 -- -- 93
2020-06-22 02:00:00 19.5 5 Norte 7 Norte 0 -- -- 92
2020-06-22 01:00:00 20.3 5 Noroeste 9 Noroeste 0 -- -- 88
2020-06-22 00:00:00 21.6 0 Calma 4 Este 0 -- -- 84
2020-06-21 23:00:00 22.6 0 Calma 10 Sudoeste 0 -- -- 81
2020-06-21 22:00:00 23.8 6 Sur 17 Sudeste 0 -- -- 77
2020-06-21 21:00:00 25.4 8 Sudeste 19 Sur 0 -- -- 71
2020-06-21 20:00:00 26.8 14 Sur 23 Sudeste 0 -- -- 67
2020-06-21 19:00:00 28.3 15 Sur 24 Sur 0 -- -- 59
2020-06-21 18:00:00 30.4 12 Sudoeste 22 Sudoeste 0 -- -- 46
2020-06-21 17:00:00 30.9 14 Sudoeste 28 Sudoeste 0 -- -- 37
2020-06-21 16:00:00 30.7 6 Oeste 30 Sudoeste 0 -- -- 36
2020-06-21 15:00:00 29.7 10 Sur 21 Sur 0 -- -- 51
2020-06-21 14:00:00 28.6 12 Sur 19 Sur 0 -- -- 57
2020-06-21 13:00:00 27.2 10 Sur 17 Sur 0 -- -- 56
2020-06-21 12:00:00 25.1 11 Sudeste 18 Sudeste 0 -- -- 62
2020-06-21 11:00:00 24.1 5 Sur 12 Sur 0 -- -- 65
2020-06-21 10:00:00 21.8 2 Nordeste 9 Este 0 -- -- 72
2020-06-21 09:00:00 19.3 4 Nordeste 7 Nordeste 0 -- -- 81
2020-06-21 08:00:00 17 3 Nordeste 10 Norte 0 -- -- 90
2020-06-21 07:00:00 14.7 6 Norte 9 Norte 0 -- -- 96
2020-06-21 06:00:00 14.9 3 Norte 5 Norte 0 -- -- 95
2020-06-21 05:00:00 16.1 0 Calma 12 Norte 0 -- -- 94
2020-06-21 04:00:00 15.9 8 Norte 13 Norte 0 -- -- 96
2020-06-21 03:00:00 15.8 6 Norte 10 Norte 0 -- -- 96
2020-06-21 02:00:00 16.3 6 Norte 9 Noroeste 0 -- -- 93
2020-06-21 01:00:00 17.1 5 Noroeste 6 Norte 0 -- -- 92
2020-06-21 00:00:00 17.8 5 Norte 11 Norte 0 -- -- 91
2020-06-20 23:00:00 19.1 5 Norte 16 Nordeste 0 -- -- 85
2020-06-20 22:00:00 20.2 14 Nordeste 22 Nordeste 0 -- -- 81
2020-06-20 21:00:00 20.3 10 Nordeste 23 Nordeste 0 -- -- 82
2020-06-20 20:00:00 20.2 15 Norte 35 Norte 0 -- -- 82
2020-06-20 19:00:00 21.8 19 Este 39 Este 0 -- -- 73
2020-06-20 18:00:00 26 22 Sur 36 Sudoeste 0 -- -- 66
2020-06-20 17:00:00 26.7 23 Sur 40 Sur 0 -- -- 63
2020-06-20 16:00:00 27 22 Sur 39 Sudoeste 0 -- -- 59
2020-06-20 15:00:00 27.4 19 Sur 33 Sur 0 -- -- 57
2020-06-20 14:00:00 26.8 18 Sur 31 Sur 0 -- -- 56
2020-06-20 13:00:00 26.1 13 Sur 23 Sur 0 -- -- 58
2020-06-20 12:00:00 24.6 11 Sur 17 Sudoeste 0 -- -- 60
2020-06-20 11:00:00 22.5 7 Sur 13 Sur 0 -- -- 68
2020-06-20 10:00:00 20 5 Sudeste 9 Sudeste 0 -- -- 77
2020-06-20 09:00:00 18 3 Sudeste 5 Este 0 -- -- 84
2020-06-20 08:00:00 15.3 3 Sudeste 4 Sudeste 0 -- -- 91
2020-06-20 07:00:00 13.4 0 Calma 4 Norte 0 -- -- 98
2020-06-20 06:00:00 13.1 4 Noroeste 7 Noroeste 0 -- -- 97
2020-06-20 05:00:00 13.3 3 Noroeste 6 Noroeste 0 -- -- 96
2020-06-20 04:00:00 14.1 2 Oeste 7 Noroeste 0 -- -- 95
2020-06-20 03:00:00 15.3 5 Noroeste 8 Norte 0 -- -- 93
2020-06-20 02:00:00 16.1 2 Noroeste 5 Noroeste 0 -- -- 91
2020-06-20 01:00:00 16.8 2 Noroeste 7 Norte 0 -- -- 87
2020-06-20 00:00:00 17.3 3 Oeste 7 Norte 0 -- -- 85
2020-06-19 23:00:00 18.2 4 Sudoeste 8 Sur 0 -- -- 80
2020-06-19 22:00:00 19.1 4 Sur 21 Sur 0 -- -- 76
2020-06-19 21:00:00 20.6 14 Sur 26 Sur 0 -- -- 70
2020-06-19 20:00:00 22.3 16 Sur 32 Sur 0 -- -- 62
2020-06-19 19:00:00 23.3 22 Sur 35 Sur 0 -- -- 59
2020-06-19 18:00:00 24.5 19 Sur 33 Sur 0 -- -- 56
2020-06-19 17:00:00 24.4 19 Sur 33 Sur 0 -- -- 56
2020-06-19 16:00:00 24.2 17 Sur 27 Sudoeste 0 -- -- 55
2020-06-19 15:00:00 23.6 18 Sur 29 Sur 0 -- -- 54
2020-06-19 14:00:00 23.1 17 Sur 29 Sur 0 -- -- 56
2020-06-19 13:00:00 22.8 15 Sur 23 Sur 0 -- -- 56
2020-06-19 12:00:00 21.7 6 Oeste 13 Oeste 0 -- -- 59
2020-06-19 11:00:00 20.1 3 Norte 12 Norte 0 -- -- 70
2020-06-19 10:00:00 19.5 6 Nordeste 9 Nordeste 0 -- -- 77
2020-06-19 09:00:00 17.1 2 Sur 12 Norte 0 -- -- 85
2020-06-19 08:00:00 16.3 3 Norte 7 Noroeste 0 -- -- 92
2020-06-19 07:00:00 15.9 3 Norte 5 Norte 0 -- -- 93
2020-06-19 06:00:00 15.8 0 Calma 10 Sur 0 -- -- 92
2020-06-19 05:00:00 16 5 Sur 8 Sur 0 -- -- 92
2020-06-19 04:00:00 16.5 2 Este 5 Noroeste 0 -- -- 89
2020-06-19 03:00:00 16.6 3 Sur 8 Sur 0 -- -- 89
2020-06-19 02:00:00 16.6 5 Norte 7 Norte 0 -- -- 88
2020-06-19 01:00:00 17.2 2 Oeste 8 Sudoeste 0 -- -- 84
2020-06-19 00:00:00 17.3 5 Sudoeste 13 Sudoeste 0 -- -- 84
2020-06-18 23:00:00 17.7 8 Sur 16 Sur 0 -- -- 83
2020-06-18 22:00:00 18.3 9 Sur 25 Sur 0 -- -- 80
2020-06-18 21:00:00 18.9 15 Sur 27 Sur 0 -- -- 79
2020-06-18 20:00:00 20.5 19 Sur 31 Sur 0 -- -- 73
2020-06-18 19:00:00 22.5 22 Sur 33 Sur 0 -- -- 66
2020-06-18 18:00:00 23.7 19 Sur 31 Sur 0 -- -- 57
2020-06-18 17:00:00 23.7 14 Sur 22 Sur 0 -- -- 56
2020-06-18 16:00:00 24.2 12 Sur 31 Sur 0 -- -- 55
2020-06-18 15:00:00 22.7 14 Sudeste 24 Sur 0 -- -- 58
2020-06-18 14:00:00 21.5 12 Sur 19 Sudeste 0 -- -- 65
2020-06-18 13:00:00 19.6 8 Sudeste 15 Sudeste 0 -- -- 74
2020-06-18 12:00:00 18 5 Nordeste 13 Este 0 -- -- 82
2020-06-18 11:00:00 15.7 6 Norte 10 Norte 0 -- -- 97
2020-06-18 10:00:00 14.1 4 Sur 8 Sur 1 -- -- 98
2020-06-18 09:00:00 13.8 3 Norte 9 Sudoeste 2.2 -- -- 97
2020-06-18 08:00:00 13.4 4 Sudoeste 6 Sudoeste 0.8 -- -- 97
2020-06-18 07:00:00 13.2 3 Nordeste 8 Sudoeste 3.2 -- -- 95
2020-06-18 06:00:00 12.8 4 Sudoeste 9 Noroeste 0 -- -- 94
2020-06-18 05:00:00 12.7 2 Sur 9 Noroeste 0 -- -- 94
2020-06-18 04:00:00 12.4 4 Norte 13 Noroeste 0 -- -- 93
2020-06-18 03:00:00 12.6 0 Calma 6 Noroeste 0 -- -- 91
2020-06-18 02:00:00 14.6 8 Noroeste 11 Noroeste 0 -- -- 83
2020-06-18 01:00:00 14.9 9 Noroeste 12 Norte 0 -- -- 84
2020-06-18 00:00:00 15.9 4 Norte 8 Sudeste 0 -- -- 83
2020-06-17 23:00:00 17.2 5 Sudeste 13 Este 0 -- -- 77
2020-06-17 22:00:00 18.2 9 Sur 23 Sur 0 -- -- 76
2020-06-17 21:00:00 20.4 17 Sur 33 Sudoeste 0 -- -- 66
2020-06-17 20:00:00 22.5 21 Sur 33 Sur 0 -- -- 54
2020-06-17 19:00:00 23.7 19 Sudoeste 35 Sudoeste 0 -- -- 43
2020-06-17 18:00:00 23.9 20 Sudoeste 33 Noroeste 0 -- -- 40
2020-06-17 17:00:00 24.1 12 Sudoeste 28 Sudoeste 0 -- -- 41
2020-06-17 16:00:00 23.3 15 Sudoeste 33 Sudoeste 0 -- -- 46
2020-06-17 15:00:00 23 14 Sudoeste 31 Sudoeste 0 -- -- 50
2020-06-17 14:00:00 21.8 12 Sudoeste 23 Sur 0 -- -- 58
2020-06-17 13:00:00 19.6 11 Sudoeste 20 Sudoeste 0 -- -- 64
2020-06-17 12:00:00 19.5 9 Sur 15 Sudeste 0 -- -- 71
2020-06-17 11:00:00 16.9 5 Sur 10 Sur 0 -- -- 82
2020-06-17 10:00:00 15.3 5 Sudeste 8 Este 0 -- -- 89
2020-06-17 09:00:00 14.2 3 Nordeste 5 Nordeste 0 -- -- 95
2020-06-17 08:00:00 12.8 0 Calma 5 Sur 0 -- -- 98
2020-06-17 07:00:00 11.9 3 Nordeste 8 Nordeste 0 -- -- 98
2020-06-17 06:00:00 11.9 0 Calma 8 Norte 0 -- -- 97
2020-06-17 05:00:00 12.2 5 Norte 7 Norte 0 -- -- 97
2020-06-17 04:00:00 12.6 2 Oeste 8 Norte 0 -- -- 97
2020-06-17 03:00:00 13.1 0 Calma 8 Noroeste 0 -- -- 97
2020-06-17 02:00:00 13.4 0 Calma 10 Norte 0 -- -- 96
2020-06-17 01:00:00 14.2 5 Norte 10 Noroeste 0 -- -- 96
2020-06-17 00:00:00 14.1 9 Norte 10 Norte 0 -- -- 95
2020-06-16 23:00:00 15.8 5 Noroeste 9 Norte 0 -- -- 90
2020-06-16 22:00:00 17.5 5 Oeste 10 Oeste 0 -- -- 82
2020-06-16 21:00:00 18.6 3 Sudoeste 15 Sudoeste 0 -- -- 79
2020-06-16 20:00:00 19.9 6 Sudoeste 15 Sur 0 -- -- 69
2020-06-16 19:00:00 20.3 5 Sur 15 Sudoeste 0 -- -- 74
2020-06-16 18:00:00 19.2 10 Sur 15 Sur 0 -- -- 82
2020-06-16 17:00:00 18 10 Sur 16 Sur 0 -- -- 89
2020-06-16 16:00:00 17.2 8 Sur 14 Sur 0.2 -- -- 94
2020-06-16 15:00:00 16.4 8 Sur 15 Sur 2.8 -- -- 96
2020-06-16 14:00:00 16.7 7 Sur 12 Sur 0.2 -- -- 92
2020-06-16 13:00:00 16.6 7 Sur 10 Sudeste 0.8 -- -- 95
2020-06-16 12:00:00 16 7 Sur 13 Sudoeste 2.4 -- -- 94
2020-06-16 11:00:00 16 6 Sudoeste 12 Sur 3.8 -- -- 97
2020-06-16 10:00:00 16.1 8 Sur 13 Sur 0.2 -- -- 97
2020-06-16 09:00:00 16.2 5 Sur 9 Sur 0.2 -- -- 97
2020-06-16 08:00:00 15.9 0 Calma 8 Oeste 1.4 -- -- 97
2020-06-16 07:00:00 15.8 3 Norte 9 Sur 2 -- -- 97
2020-06-16 06:00:00 16 0 Calma 7 Noroeste 0.2 -- -- 94
2020-06-16 05:00:00 16.2 3 Noroeste 5 Norte 0 -- -- 92
2020-06-16 04:00:00 16.4 5 Norte 10 Noroeste 0 -- -- 91
2020-06-16 03:00:00 17.1 3 Norte 5 Norte 0 -- -- 88
2020-06-16 02:00:00 17.8 4 Norte 6 Nordeste 0 -- -- 85
2020-06-16 01:00:00 18.3 0 Calma 8 Este 0 -- -- 79
2020-06-16 00:00:00 18.9 4 Este 10 Sudeste 0 -- -- 77
2020-06-15 23:00:00 19.6 6 Sur 18 Este 0 -- -- 77
2020-06-15 22:00:00 20.3 9 Nordeste 19 Sudeste 0 -- -- 71
2020-06-15 21:00:00 22.5 11 Este 22 Sur 0 -- -- 65
2020-06-15 20:00:00 24.4 17 Sur 30 Sudoeste 0 -- -- 60
2020-06-15 19:00:00 26.6 11 Sur 31 Sudoeste 0 -- -- 50
2020-06-15 18:00:00 25.7 18 Sur 34 Sur 0 -- -- 54
2020-06-15 17:00:00 24.5 18 Sur 31 Sur 0 -- -- 59
2020-06-15 16:00:00 24.6 25 Sur 38 Sur 0 -- -- 56
2020-06-15 15:00:00 24.7 15 Sur 30 Sur 0 -- -- 52
2020-06-15 14:00:00 24.2 16 Sur 27 Sur 0 -- -- 53
2020-06-15 13:00:00 23.9 10 Sudoeste 23 Sur 0 -- -- 48
2020-06-15 12:00:00 23.6 14 Sur 23 Sudoeste 0 -- -- 55
2020-06-15 11:00:00 22 13 Sur 22 Sur 0 -- -- 60
2020-06-15 10:00:00 20.7 5 Sudeste 10 Sudeste 0 -- -- 65
2020-06-15 09:00:00 18.3 3 Este 6 Este 0 -- -- 76
2020-06-15 08:00:00 16.1 3 Nordeste 6 Norte 0 -- -- 85
2020-06-15 07:00:00 13.4 3 Norte 6 Norte 0 -- -- 92
2020-06-15 06:00:00 13.5 3 Noroeste 7 Norte 0 -- -- 92
2020-06-15 05:00:00 14.8 3 Norte 6 Noroeste 0 -- -- 89
2020-06-15 04:00:00 14.8 4 Norte 8 Noroeste 0 -- -- 88
2020-06-15 03:00:00 15 3 Noroeste 9 Noroeste 0 -- -- 87
2020-06-15 02:00:00 15.1 0 Calma 8 Noroeste 0 -- -- 86
2020-06-15 01:00:00 15.5 4 Noroeste 8 Noroeste 0 -- -- 82
2020-06-15 00:00:00 16.8 3 Sudoeste 10 Noroeste 0 -- -- 78
2020-06-14 23:00:00 17.9 6 Norte 10 Sudoeste 0 -- -- 72
2020-06-14 22:00:00 19.5 9 Sur 14 Sur 0 -- -- 64
2020-06-14 21:00:00 21 9 Sur 22 Sur 0 -- -- 57
2020-06-14 20:00:00 22.6 15 Sur 26 Sur 0 -- -- 53
2020-06-14 19:00:00 22.9 17 Sur 30 Sur 0 -- -- 55
2020-06-14 18:00:00 23.2 18 Sur 30 Sur 0 -- -- 56
2020-06-14 17:00:00 23.8 17 Sur 34 Sur 0 -- -- 54
2020-06-14 16:00:00 25.4 15 Sur 27 Sudoeste 0 -- -- 53
2020-06-14 15:00:00 24.7 12 Noroeste 27 Oeste 0 -- -- 38
2020-06-14 14:00:00 25.4 17 Sudoeste 33 Sudoeste 0 -- -- 36
2020-06-14 13:00:00 24.4 10 Sur 23 Sudeste 0 -- -- 49
2020-06-14 12:00:00 22.8 7 Sudeste 19 Sudeste 0 -- -- 55
2020-06-14 11:00:00 20.8 10 Sur 18 Sur 0 -- -- 63
2020-06-14 10:00:00 19.7 4 Sudeste 8 Este 0 -- -- 63
2020-06-14 09:00:00 17 4 Nordeste 8 Este 0 -- -- 76
2020-06-14 08:00:00 13.6 3 Norte 9 Norte 0 -- -- 85
2020-06-14 07:00:00 10.9 6 Norte 9 Noroeste 0 -- -- 96
2020-06-14 06:00:00 11.2 6 Noroeste 9 Noroeste 0 -- -- 94
2020-06-14 05:00:00 11.8 4 Noroeste 9 Norte 0 -- -- 89
2020-06-14 04:00:00 12.4 3 Noroeste 9 Norte 0 -- -- 89
2020-06-14 03:00:00 13 6 Norte 10 Noroeste 0 -- -- 87
2020-06-14 02:00:00 15.4 8 Norte 10 Noroeste 0 -- -- 79
2020-06-14 01:00:00 16.9 3 Sur 15 Sur 0 -- -- 72
2020-06-14 00:00:00 18.1 13 Sur 30 Sudoeste 0 -- -- 69
2020-06-13 23:00:00 19.3 13 Sur 19 Sur 0 -- -- 55
2020-06-13 22:00:00 20.3 5 Sudoeste 23 Sudoeste 0 -- -- 46
2020-06-13 21:00:00 21.8 10 Sudoeste 28 Sudoeste 0 -- -- 41
2020-06-13 20:00:00 23.4 17 Sudoeste 39 Sur 0 -- -- 39
2020-06-13 19:00:00 23.9 18 Sudoeste 36 Sudoeste 0 -- -- 39
2020-06-13 18:00:00 24.8 13 Oeste 37 Sudoeste 0 -- -- 37
2020-06-13 17:00:00 24.4 15 Sudoeste 39 Sudoeste 0 -- -- 40
2020-06-13 16:00:00 24.5 15 Sudoeste 38 Sudoeste 0 -- -- 39
2020-06-13 15:00:00 23.5 13 Oeste 35 Sudoeste 0 -- -- 42
2020-06-13 14:00:00 22.7 21 Sudoeste 41 Sur 0 -- -- 47
2020-06-13 13:00:00 22.6 18 Sudoeste 39 Sudoeste 0 -- -- 45
2020-06-13 12:00:00 21.7 16 Sudoeste 33 Sudoeste 0 -- -- 48
2020-06-13 11:00:00 20.2 11 Sudoeste 24 Sudoeste 0 -- -- 55
2020-06-13 10:00:00 16 5 Sudeste 8 Este 0 -- -- 71
2020-06-13 09:00:00 12.6 4 Norte 6 Noroeste 0 -- -- 84
2020-06-13 08:00:00 10.5 5 Noroeste 8 Noroeste 0 -- -- 91
2020-06-13 07:00:00 9.3 3 Oeste 6 Norte 0 -- -- 94
2020-06-13 06:00:00 9.8 2 Norte 10 Norte 0 -- -- 88
2020-06-13 05:00:00 10.3 6 Norte 13 Oeste 0 -- -- 88
2020-06-13 04:00:00 11.4 10 Noroeste 14 Norte 0 -- -- 84
2020-06-13 03:00:00 11.5 4 Norte 10 Noroeste 0 -- -- 85
2020-06-13 02:00:00 12.4 9 Noroeste 12 Noroeste 0 -- -- 83
2020-06-13 01:00:00 13.1 9 Noroeste 12 Noroeste 0 -- -- 79
2020-06-13 00:00:00 14 8 Norte 9 Noroeste 0 -- -- 77
2020-06-12 23:00:00 16.2 0 Calma 10 Sur 0 -- -- 66
2020-06-12 22:00:00 18.6 5 Sur 9 Sur 0 -- -- 52
2020-06-12 21:00:00 20.8 4 Oeste 19 Oeste 0 -- -- 43
2020-06-12 20:00:00 22.8 9 Oeste 21 Noroeste 0 -- -- 36
2020-06-12 19:00:00 23.4 11 Noroeste 28 Oeste 0 -- -- 35
2020-06-12 18:00:00 23.1 14 Oeste 31 Sudoeste 0 -- -- 38
2020-06-12 17:00:00 22.7 15 Oeste 34 Noroeste 0 -- -- 37
2020-06-12 16:00:00 22.8 10 Noroeste 35 Noroeste 0 -- -- 42
2020-06-12 15:00:00 22.4 15 Sudoeste 36 Sudoeste 0 -- -- 42
2020-06-12 14:00:00 22.1 14 Sudoeste 36 Sudoeste 0 -- -- 45
2020-06-12 13:00:00 21.7 13 Sudoeste 31 Oeste 0 -- -- 48
2020-06-12 12:00:00 20.5 14 Sudoeste 32 Sudoeste 0 -- -- 56
2020-06-12 11:00:00 18.3 11 Sudoeste 26 Sudoeste 0 -- -- 71
2020-06-12 10:00:00 17.7 8 Sudoeste 16 Noroeste 0 -- -- 78
2020-06-12 09:00:00 16.8 12 Sudoeste 19 Sudoeste 0 -- -- 83
2020-06-12 08:00:00 16.9 6 Sudoeste 13 Sudoeste 0 -- -- 89
2020-06-12 07:00:00 15.4 5 Sur 8 Sur 0 -- -- 98
2020-06-12 06:00:00 15.3 5 Sur 13 Noroeste 2.6 -- -- 98
2020-06-12 05:00:00 15.2 7 Noroeste 10 Noroeste 0.8 -- -- 98
2020-06-12 04:00:00 15.3 3 Nordeste 10 Noroeste 0 -- -- 96
2020-06-12 03:00:00 15.1 7 Noroeste 11 Noroeste 0 -- -- 97
2020-06-12 02:00:00 14.9 4 Noroeste 15 Noroeste 0 -- -- 97
2020-06-12 01:00:00 15.1 6 Noroeste 10 Noroeste 0 -- -- 97
2020-06-12 00:00:00 15.5 8 Norte 12 Norte 0 -- -- 97
2020-06-11 23:00:00 16.2 10 Noroeste 12 Norte 0 -- -- 97
2020-06-11 22:00:00 17 5 Noroeste 9 Noroeste 0 -- -- 95
2020-06-11 21:00:00 17.3 5 Noroeste 9 Noroeste 0 -- -- 93
2020-06-11 20:00:00 17.6 4 Norte 9 Norte 0 -- -- 92
2020-06-11 19:00:00 17.9 5 Norte 10 Norte 0 -- -- 90
2020-06-11 18:00:00 16.5 4 Noroeste 10 Norte 0 -- -- 94
2020-06-11 17:00:00 15.6 7 Norte 21 Oeste 1.4 -- -- 95
2020-06-11 16:00:00 17.2 11 Norte 20 Norte 0 -- -- 80
2020-06-11 15:00:00 19 14 Norte 18 Noroeste 0 -- -- 72
2020-06-11 14:00:00 21.1 6 Sudeste 17 Sur 0 -- -- 64
2020-06-11 13:00:00 19.6 3 Sudoeste 9 Este 0 -- -- 70
2020-06-11 12:00:00 17.5 3 Este 9 Sudeste 0 -- -- 81
2020-06-11 11:00:00 15.7 2 Norte 8 Norte 0 -- -- 85
2020-06-11 10:00:00 14.8 2 Noroeste 8 Noroeste 0 -- -- 85
2020-06-11 09:00:00 14.4 4 Sudoeste 9 Norte 0 -- -- 86
2020-06-11 08:00:00 14 5 Norte 10 Nordeste 0 -- -- 93
2020-06-11 07:00:00 13.5 4 Norte 5 Norte 0 -- -- 92
2020-06-11 06:00:00 13.9 0 Calma 5 Norte 0 -- -- 89
2020-06-11 05:00:00 13.9 2 Norte 9 Norte 0 -- -- 87
2020-06-11 04:00:00 14 6 Norte 12 Noroeste 0 -- -- 86
2020-06-11 03:00:00 14.5 6 Norte 10 Norte 0 -- -- 86
2020-06-11 02:00:00 14.7 4 Norte 6 Noroeste 0 -- -- 88
2020-06-11 01:00:00 15.3 2 Noroeste 7 Noroeste 0 -- -- 82
2020-06-11 00:00:00 15.6 3 Nordeste 7 Este 0 -- -- 82
2020-06-10 23:00:00 16 3 Nordeste 7 Sur 0 -- -- 77
2020-06-10 22:00:00 16 3 Nordeste 9 Nordeste 0 -- -- 80
2020-06-10 21:00:00 16.3 7 Sudeste 17 Sudeste 0 -- -- 76
2020-06-10 20:00:00 17.3 10 Este 22 Sur 0 -- -- 73
2020-06-10 19:00:00 18.5 15 Este 30 Sudeste 0 -- -- 70
2020-06-10 18:00:00 22 17 Sur 24 Sur 0 -- -- 55
2020-06-10 17:00:00 23.7 11 Sudoeste 25 Sur 0 -- -- 48
2020-06-10 16:00:00 23.4 7 Noroeste 24 Sudoeste 0 -- -- 39
2020-06-10 15:00:00 21.8 10 Sudoeste 25 Sudoeste 0 -- -- 44
2020-06-10 14:00:00 21.6 8 Sur 25 Sur 0 -- -- 50
2020-06-10 13:00:00 20.9 11 Sudeste 22 Sur 0 -- -- 54
2020-06-10 12:00:00 19.7 9 Sudeste 15 Sudeste 0 -- -- 61
2020-06-10 11:00:00 17.9 6 Sur 11 Sur 0 -- -- 70
2020-06-10 10:00:00 15.2 3 Nordeste 9 Este 0 -- -- 80
2020-06-10 09:00:00 11.1 4 Norte 6 Noroeste 0 -- -- 100
2020-06-10 08:00:00 9.2 2 Noroeste 7 Norte 0 -- -- 100
2020-06-10 07:00:00 8.7 3 Norte 6 Noroeste 0 -- -- 99
2020-06-10 06:00:00 8.9 3 Norte 6 Noroeste 0 -- -- 99
2020-06-10 05:00:00 9.7 2 Oeste 7 Norte 0 -- -- 98
2020-06-10 04:00:00 9.7 3 Norte 10 Noroeste 0 -- -- 97
2020-06-10 03:00:00 10.3 11 Norte 15 Norte 0 -- -- 97
2020-06-10 02:00:00 11.2 9 Noroeste 11 Noroeste 0 -- -- 96
2020-06-10 01:00:00 12.5 6 Noroeste 9 Norte 0 -- -- 94
2020-06-10 00:00:00 13.6 0 Calma 8 Noroeste 0 -- -- 91
2020-06-09 23:00:00 14 4 Noroeste 8 Noroeste 0 -- -- 89
2020-06-09 22:00:00 14.3 5 Noroeste 10 Oeste 0 -- -- 85
2020-06-09 21:00:00 14.8 6 Noroeste 17 Norte 0 -- -- 84
2020-06-09 20:00:00 16.1 14 Norte 23 Norte 0 -- -- 82
2020-06-09 19:00:00 17.1 5 Sudeste 26 Sur 0 -- -- 71
2020-06-09 18:00:00 17.2 19 Sur 26 Sur 0 -- -- 68
2020-06-09 17:00:00 16.1 13 Sur 35 Sudeste 0.2 -- -- 73
2020-06-09 16:00:00 17.1 15 Este 48 Noroeste 1.8 -- -- 72
2020-06-09 15:00:00 20.6 8 Sudoeste 26 Norte 0 -- -- 52
2020-06-09 14:00:00 21.3 10 Sur 19 Sur 0 -- -- 50
2020-06-09 13:00:00 20.2 5 Sur 17 Sudeste 0 -- -- 54
2020-06-09 12:00:00 18 5 Sur 15 Norte 0 -- -- 65
2020-06-09 11:00:00 17 6 Nordeste 14 Norte 0 -- -- 70
2020-06-09 10:00:00 13.2 4 Nordeste 8 Norte 0 -- -- 93
2020-06-09 09:00:00 10.4 2 Este 7 Norte 0 -- -- 100
2020-06-09 08:00:00 8.9 3 Norte 6 Norte 0 -- -- 100
2020-06-09 07:00:00 8.7 4 Noroeste 7 Noroeste 0 -- -- 99
2020-06-09 06:00:00 8.4 4 Noroeste 10 Norte 0 -- -- 98
2020-06-09 05:00:00 8.5 5 Noroeste 8 Norte 0 -- -- 98
2020-06-09 04:00:00 9.2 7 Norte 9 Noroeste 0 -- -- 97
2020-06-09 03:00:00 9.8 5 Noroeste 7 Norte 0 -- -- 96
2020-06-09 02:00:00 10.8 6 Oeste 10 Noroeste 0 -- -- 95
2020-06-09 01:00:00 11.7 3 Este 11 Noroeste 0 -- -- 92
2020-06-09 00:00:00 12.3 5 Norte 8 Noroeste 0 -- -- 90
2020-06-08 23:00:00 13.8 6 Sur 15 Sur 0 -- -- 86
2020-06-08 22:00:00 14.6 8 Sur 19 Sur 0 -- -- 79
2020-06-08 21:00:00 15.9 10 Sur 18 Sudeste 0 -- -- 71
2020-06-08 20:00:00 16.9 11 Sur 19 Sudeste 0 -- -- 66
2020-06-08 19:00:00 17.3 12 Sur 20 Sudoeste 0 -- -- 65
2020-06-08 18:00:00 17.3 15 Sur 31 Sur 0 -- -- 69
2020-06-08 17:00:00 18.5 21 Sur 33 Sur 0 -- -- 64
2020-06-08 16:00:00 18.2 22 Sur 32 Sudoeste 0 -- -- 64
2020-06-08 15:00:00 19.2 15 Sur 24 Sur 0 -- -- 62
2020-06-08 14:00:00 18.6 10 Sur 28 Sur 0 -- -- 61
2020-06-08 13:00:00 16.8 9 Sudoeste 17 Sudoeste 0 -- -- 69
2020-06-08 12:00:00 16.1 7 Sur 14 Sudoeste 0 -- -- 72
2020-06-08 11:00:00 16.3 9 Sudoeste 14 Sudoeste 0 -- -- 70
2020-06-08 10:00:00 14.2 7 Sudoeste 15 Norte 0 -- -- 76
2020-06-08 09:00:00 12.8 4 Norte 14 Oeste 0 -- -- 80
2020-06-08 08:00:00 12.2 3 Noroeste 9 Sudoeste 0 -- -- 82
2020-06-08 07:00:00 11.2 5 Sur 19 Oeste 0 -- -- 86
2020-06-08 06:00:00 11.4 0 Calma 11 Noroeste 0 -- -- 88
2020-06-08 05:00:00 12 7 Noroeste 13 Norte 0 -- -- 93
2020-06-08 04:00:00 12.5 2 Oeste 8 Oeste 0 -- -- 96
2020-06-08 03:00:00 13.4 3 Este 5 Oeste 0 -- -- 99
2020-06-08 02:00:00 13.5 0 Calma 7 Sudoeste 0 -- -- 100
2020-06-08 01:00:00 13.4 2 Este 5 Norte 0 -- -- 100
2020-06-08 00:00:00 13.4 4 Norte 8 Noroeste 0 -- -- 99
2020-06-07 23:00:00 13.3 0 Calma 5 Norte 0.4 -- -- 99
2020-06-07 22:00:00 13.4 2 Norte 9 Sur 2.8 -- -- 99
2020-06-07 21:00:00 13.5 7 Sur 11 Sudeste 3.4 -- -- 99
2020-06-07 20:00:00 13.5 3 Noroeste 14 Norte 7 -- -- 98
2020-06-07 19:00:00 13.2 6 Noroeste 27 Nordeste 8.6 -- -- 98
2020-06-07 18:00:00 13.3 30 Norte 64 Norte 6.6 -- -- 94
2020-06-07 17:00:00 20.2 9 Sur 33 Sur 0.2 -- -- 71
2020-06-07 16:00:00 21.5 23 Sur 40 Sur 0 -- -- 64
2020-06-07 15:00:00 21.6 22 Sur 36 Sur 0 -- -- 68
2020-06-07 14:00:00 21.2 10 Sudoeste 26 Sur 0 -- -- 69
2020-06-07 13:00:00 21.4 11 Sudoeste 23 Sur 0 -- -- 70
2020-06-07 12:00:00 20.1 14 Sudoeste 23 Sur 0 -- -- 73
2020-06-07 11:00:00 19.1 7 Sudoeste 18 Oeste 0 -- -- 79
2020-06-07 10:00:00 17.9 8 Sudoeste 17 Sudoeste 0 -- -- 87
2020-06-07 09:00:00 17.4 6 Noroeste 11 Oeste 0 -- -- 90
2020-06-07 08:00:00 16.6 5 Noroeste 9 Sur 0 -- -- 95
2020-06-07 07:00:00 16.3 0 Calma 6 Sudeste 0 -- -- 97
2020-06-07 06:00:00 16.2 2 Noroeste 9 Noroeste 0 -- -- 97
2020-06-07 05:00:00 16.5 4 Norte 8 Noroeste 0 -- -- 95
2020-06-07 04:00:00 17 6 Noroeste 8 Noroeste 0 -- -- 95
2020-06-07 03:00:00 17.3 3 Noroeste 9 Norte 0 -- -- 95
2020-06-07 02:00:00 17.5 0 Calma 9 Este 0.4 -- -- 93
2020-06-07 01:00:00 18.2 5 Oeste 9 Sudeste 0 -- -- 87
2020-06-07 00:00:00 18.7 8 Sudeste 15 Sudeste 0 -- -- 83
2020-06-06 23:00:00 18.8 5 Norte 13 Oeste 0 -- -- 87
2020-06-06 22:00:00 20 2 Sudeste 11 Sudeste 0 -- -- 78
2020-06-06 21:00:00 20.6 7 Sur 21 Sur 0 -- -- 75
2020-06-06 20:00:00 22.1 22 Sur 37 Sur 0 -- -- 71
2020-06-06 19:00:00 23.9 19 Sur 30 Sur 0 -- -- 66
2020-06-06 18:00:00 23.7 18 Sur 36 Sur 0 -- -- 68
2020-06-06 17:00:00 25.4 24 Sur 35 Sur 0 -- -- 61
2020-06-06 16:00:00 27.1 19 Sur 33 Sur 0 -- -- 53
2020-06-06 15:00:00 26 16 Sur 26 Sur 0 -- -- 54
2020-06-06 14:00:00 25.8 13 Sur 21 Sur 0 -- -- 55
2020-06-06 13:00:00 24.7 10 Sur 19 Sudeste 0 -- -- 56
2020-06-06 12:00:00 23 10 Sur 19 Sur 0 -- -- 62
2020-06-06 11:00:00 21.2 9 Sur 14 Sur 0 -- -- 67
2020-06-06 10:00:00 18.9 5 Sur 9 Sudeste 0 -- -- 74
2020-06-06 09:00:00 16.6 2 Este 6 Este 0 -- -- 83
2020-06-06 08:00:00 13.1 3 Norte 6 Norte 0 -- -- 92
2020-06-06 07:00:00 10.7 4 Noroeste 9 Norte 0 -- -- 98
2020-06-06 06:00:00 10.6 0 Calma 8 Noroeste 0 -- -- 97
2020-06-06 05:00:00 11.2 4 Noroeste 8 Norte 0 -- -- 97
2020-06-06 04:00:00 11.8 3 Oeste 8 Noroeste 0 -- -- 95
2020-06-06 03:00:00 12.3 5 Norte 9 Noroeste 0 -- -- 93
2020-06-06 02:00:00 13.2 3 Norte 10 Noroeste 0 -- -- 90
2020-06-06 01:00:00 14.6 6 Noroeste 9 Noroeste 0 -- -- 88
2020-06-06 00:00:00 16.1 0 Calma 7 Sur 0 -- -- 81
2020-06-05 23:00:00 17.5 2 Sudoeste 13 Sur 0 -- -- 75
2020-06-05 22:00:00 18.8 13 Sur 21 Sur 0 -- -- 70
2020-06-05 21:00:00 21.4 15 Sur 26 Sudoeste 0 -- -- 59
2020-06-05 20:00:00 23.8 14 Sur 26 Sur 0 -- -- 47
2020-06-05 19:00:00 24.8 15 Sur 30 Sur 0 -- -- 45
2020-06-05 18:00:00 25.3 9 Oeste 26 Oeste 0 -- -- 42
2020-06-05 17:00:00 25.4 12 Sudoeste 26 Sudoeste 0 -- -- 42
2020-06-05 16:00:00 24.6 9 Sur 24 Sudoeste 0 -- -- 46
2020-06-05 15:00:00 23.6 15 Sudoeste 26 Oeste 0 -- -- 47
2020-06-05 14:00:00 22.6 9 Sur 21 Sudoeste 0 -- -- 47
2020-06-05 13:00:00 20.8 11 Sudeste 19 Sudoeste 0 -- -- 59
2020-06-05 12:00:00 18.9 8 Sudeste 16 Sudeste 0 -- -- 69
2020-06-05 11:00:00 16.7 11 Sur 18 Sur 0 -- -- 73
2020-06-05 10:00:00 15.3 4 Este 10 Nordeste 0 -- -- 77
2020-06-05 09:00:00 12.4 4 Norte 10 Oeste 0 -- -- 91
2020-06-05 08:00:00 10.8 3 Nordeste 12 Noroeste 0 -- -- 96
2020-06-05 07:00:00 10.2 4 Norte 9 Norte 0 -- -- 99
2020-06-05 06:00:00 9.7 3 Noroeste 8 Oeste 0 -- -- 98
2020-06-05 05:00:00 9.6 0 Calma 9 Norte 0 -- -- 97
2020-06-05 04:00:00 9.5 5 Norte 7 Norte 0 -- -- 98
2020-06-05 03:00:00 9.6 2 Norte 6 Sudoeste 0 -- -- 96
2020-06-05 02:00:00 10.3 4 Noroeste 8 Noroeste 0 -- -- 95
2020-06-05 01:00:00 10.4 6 Norte 10 Norte 0 -- -- 94
2020-06-05 00:00:00 11.7 4 Noroeste 10 Norte 0 -- -- 92
2020-06-04 23:00:00 12.7 6 Noroeste 12 Noroeste 0 -- -- 86
2020-06-04 22:00:00 14.2 7 Noroeste 13 Este 0 -- -- 79
2020-06-04 21:00:00 15.2 7 Nordeste 17 Nordeste 0 -- -- 79
2020-06-04 20:00:00 17.2 11 Nordeste 16 Nordeste 0 -- -- 70
2020-06-04 19:00:00 16.2 8 Este 27 Norte 0 -- -- 81
2020-06-04 18:00:00 17.4 23 Norte 39 Sudoeste 0 -- -- 75
2020-06-04 17:00:00 20 19 Sur 28 Sur 0 -- -- 67
2020-06-04 16:00:00 19.1 15 Sur 28 Sur 0 -- -- 68
2020-06-04 15:00:00 18.5 18 Sudoeste 29 Sudoeste 0 -- -- 69
2020-06-04 14:00:00 17.7 15 Sudoeste 24 Sudoeste 0 -- -- 75
2020-06-04 13:00:00 16.5 9 Sudoeste 31 Sudoeste 0 -- -- 81
2020-06-04 12:00:00 15.2 12 Sudoeste 24 Sudoeste 0 -- -- 85
2020-06-04 11:00:00 14.5 6 Noroeste 21 Oeste 0 -- -- 90
2020-06-04 10:00:00 14.7 9 Sudoeste 22 Sudoeste 0.2 -- -- 94
2020-06-04 09:00:00 15.2 10 Sur 18 Sur 2.2 -- -- 100
2020-06-04 08:00:00 15 8 Sur 10 Sur 1 -- -- 100
2020-06-04 07:00:00 14.8 0 Calma 6 Sudoeste 0.2 -- -- 100
2020-06-04 06:00:00 14.7 6 Sur 8 Sur 0 -- -- 100
2020-06-04 05:00:00 14.7 4 Sur 6 Sudeste 0 -- -- 99
2020-06-04 04:00:00 14.9 4 Sudoeste 10 Sudoeste 0 -- -- 99
2020-06-04 03:00:00 14.9 3 Nordeste 8 Noroeste 0 -- -- 99
2020-06-04 02:00:00 15.4 0 Calma 10 Noroeste 0 -- -- 99
2020-06-04 01:00:00 15.9 5 Norte 10 Norte 0.2 -- -- 99
2020-06-04 00:00:00 16.1 4 Sur 8 Sur 0.6 -- -- 99